createdAt,value
2023-02-12T00:00:46.722Z,103737.06
2023-02-12T00:03:13.747Z,103752.13
2023-02-12T00:05:41.811Z,103753.09
2023-02-12T00:08:08.933Z,103744.31
2023-02-12T00:10:39.998Z,103737.16
2023-02-12T00:13:09.313Z,103743.44
2023-02-12T00:15:39.038Z,103739.09
2023-02-12T00:18:07.245Z,103733.78
2023-02-12T00:20:34.054Z,103746.19
2023-02-12T00:23:01.114Z,103736.53
2023-02-12T00:25:28.044Z,103736.53
2023-02-12T00:27:54.988Z,103733.88
2023-02-12T00:30:22.507Z,103734.84
2023-02-12T00:32:49.554Z,103736.63
2023-02-12T00:35:18.082Z,103736.63
2023-02-12T00:37:44.893Z,103733.13
2023-02-12T00:40:12.505Z,103742.03
2023-02-12T00:42:39.527Z,103736.00
2023-02-12T00:45:07.122Z,103736.09
2023-02-12T00:47:33.982Z,103737.03
2023-02-12T00:50:00.804Z,103741.59
2023-02-12T00:52:29.179Z,103747.84
2023-02-12T00:54:55.940Z,103747.03
2023-02-12T00:57:22.902Z,103733.09
2023-02-12T00:59:49.636Z,103739.34
2023-02-12T01:02:18.126Z,103736.78
2023-02-12T01:04:45.325Z,103744.88
2023-02-12T01:07:12.234Z,103736.16
2023-02-12T01:09:40.361Z,103745.06
2023-02-12T01:12:07.705Z,103743.44
2023-02-12T01:14:34.731Z,103739.22
2023-02-12T01:17:02.211Z,103735.69
2023-02-12T01:19:29.026Z,103737.59
2023-02-12T01:21:56.082Z,103742.13
2023-02-12T01:24:22.842Z,103739.59
2023-02-12T01:26:51.078Z,103740.56
2023-02-12T01:29:17.868Z,103746.91
2023-02-12T01:31:45.003Z,103740.09
2023-02-12T01:34:12.487Z,103747.28
2023-02-12T01:36:39.830Z,103745.81
2023-02-12T01:39:07.064Z,103748.59
2023-02-12T01:41:36.075Z,103746.97
2023-02-12T01:44:09.467Z,103740.19
2023-02-12T01:46:36.820Z,103743.78
2023-02-12T01:49:05.354Z,103744.72
2023-02-12T01:51:34.095Z,103736.16
2023-02-12T01:54:05.171Z,103738.03
2023-02-12T01:56:33.207Z,103733.75
2023-02-12T01:59:00.351Z,103751.56
2023-02-12T02:01:31.321Z,103751.66
2023-02-12T02:04:02.536Z,103735.09
2023-02-12T02:06:33.697Z,103737.03
2023-02-12T02:09:01.248Z,103738.81
2023-02-12T02:11:46.845Z,103733.69
2023-02-12T02:14:32.085Z,103733.69
2023-02-12T02:17:13.156Z,103725.84
2023-02-12T02:20:21.425Z,103728.78
2023-02-12T02:22:59.775Z,103730.88
2023-02-12T02:26:03.874Z,103726.69
2023-02-12T02:29:09.062Z,103728.72
2023-02-12T02:31:41.607Z,103727.19
2023-02-12T02:34:16.507Z,103723.88
2023-02-12T02:37:00.163Z,103721.31
2023-02-12T02:39:35.383Z,103716.88
2023-02-12T02:42:17.175Z,103723.97
2023-02-12T02:44:51.002Z,103715.25
2023-02-12T02:47:22.026Z,103709.25
2023-02-12T02:49:53.900Z,103706.47
2023-02-12T02:52:22.759Z,103713.56
2023-02-12T02:54:54.537Z,103713.78
2023-02-12T02:57:27.582Z,103714.81
2023-02-12T02:59:59.421Z,103712.25
2023-02-12T03:02:31.576Z,103702.72
2023-02-12T03:05:03.115Z,103702.78
2023-02-12T03:07:35.029Z,103710.91
2023-02-12T03:10:04.016Z,103712.91
2023-02-12T03:12:37.696Z,103720.16
2023-02-12T03:15:10.155Z,103716.69
2023-02-12T03:17:42.269Z,103718.50
2023-02-12T03:20:14.391Z,103714.03
2023-02-12T03:22:47.460Z,103709.78
2023-02-12T03:25:16.505Z,103717.72
2023-02-12T03:27:47.156Z,103714.31
2023-02-12T03:30:15.017Z,103714.41
2023-02-12T03:32:53.740Z,103711.88
2023-02-12T03:35:25.593Z,103716.41
2023-02-12T03:37:58.473Z,103715.56
2023-02-12T03:40:33.078Z,103714.78
2023-02-12T03:43:07.455Z,103707.78
2023-02-12T03:45:44.964Z,103715.84
2023-02-12T03:48:21.746Z,103725.56
2023-02-12T03:50:54.911Z,103723.94
2023-02-12T03:53:21.900Z,103728.47
2023-02-12T03:55:54.379Z,103726.97
2023-02-12T03:58:25.854Z,103733.97
2023-02-12T04:00:54.490Z,103730.53
2023-02-12T04:03:22.696Z,103727.91
2023-02-12T04:05:49.433Z,103735.75
2023-02-12T04:08:16.349Z,103732.25
2023-02-12T04:10:59.330Z,103736.59
2023-02-12T04:13:33.339Z,103740.19
2023-02-12T04:16:12.150Z,103733.19
2023-02-12T04:18:44.692Z,103731.31
2023-02-12T04:21:21.001Z,103741.91
2023-02-12T04:23:57.513Z,103739.25
2023-02-12T04:26:34.416Z,103740.97
2023-02-12T04:29:13.805Z,103748.78
2023-02-12T04:31:49.709Z,103743.50
2023-02-12T04:34:30.679Z,103754.84
2023-02-12T04:37:04.361Z,103757.56
2023-02-12T04:39:34.441Z,103753.13
2023-02-12T04:42:02.209Z,103763.63
2023-02-12T04:44:32.411Z,103764.50
2023-02-12T04:46:59.861Z,103759.09
2023-02-12T04:49:28.368Z,103759.00
2023-02-12T04:51:56.537Z,103766.00
2023-02-12T04:54:24.486Z,103768.56
2023-02-12T04:56:51.780Z,103770.25
2023-02-12T04:59:18.663Z,103771.19
2023-02-12T05:01:45.736Z,103774.69
2023-02-12T05:04:14.444Z,103771.13
2023-02-12T05:06:43.872Z,103770.19
2023-02-12T05:09:14.328Z,103772.75
2023-02-12T05:11:41.180Z,103766.47
2023-02-12T05:14:08.046Z,103768.19
2023-02-12T05:16:34.855Z,103765.53
2023-02-12T05:19:01.753Z,103771.59
2023-02-12T05:21:28.630Z,103769.81
2023-02-12T05:23:56.829Z,103763.56
2023-02-12T05:26:24.184Z,103776.72
2023-02-12T05:28:51.164Z,103773.22
2023-02-12T05:31:21.595Z,103771.31
2023-02-12T05:33:49.370Z,103773.00
2023-02-12T05:36:17.714Z,103773.88
2023-02-12T05:38:44.959Z,103771.22
2023-02-12T05:41:15.438Z,103776.53
2023-02-12T05:43:42.584Z,103781.72
2023-02-12T05:46:10.090Z,103779.09
2023-02-12T05:48:37.275Z,103771.06
2023-02-12T05:51:05.294Z,103773.69
2023-02-12T05:53:32.702Z,103777.09
2023-02-12T05:56:10.871Z,103773.59
2023-02-12T05:58:39.755Z,103774.44
2023-02-12T06:01:10.643Z,103770.84
2023-02-12T06:03:37.645Z,103770.84
2023-02-12T06:06:05.219Z,103783.16
2023-02-12T06:08:32.078Z,103772.56
2023-02-12T06:11:02.303Z,103777.75
2023-02-12T06:13:29.372Z,103789.22
2023-02-12T06:15:58.188Z,103786.56
2023-02-12T06:18:25.729Z,103785.63
2023-02-12T06:20:54.322Z,103777.69
2023-02-12T06:23:21.758Z,103781.19
2023-02-12T06:25:48.897Z,103785.50
2023-02-12T06:28:16.263Z,103787.31
2023-02-12T06:30:43.599Z,103783.81
2023-02-12T06:33:11.878Z,103788.06
2023-02-12T06:35:39.512Z,103790.72
2023-02-12T06:38:06.324Z,103780.13
2023-02-12T06:40:33.821Z,103796.00
2023-02-12T06:43:00.689Z,103795.06
2023-02-12T06:45:27.588Z,103782.69
2023-02-12T06:47:54.625Z,103780.88
2023-02-12T06:50:22.890Z,103791.47
2023-02-12T06:52:49.888Z,103794.03
2023-02-12T06:55:17.135Z,103796.78
2023-02-12T06:57:43.975Z,103790.53
2023-02-12T07:00:12.236Z,103799.34
2023-02-12T07:02:39.242Z,103798.47
2023-02-12T07:05:06.352Z,103804.63
2023-02-12T07:07:34.675Z,103809.94
2023-02-12T07:10:01.488Z,103809.94
2023-02-12T07:12:28.327Z,103800.28
2023-02-12T07:14:55.043Z,103814.38
2023-02-12T07:17:21.944Z,103811.63
2023-02-12T07:19:48.777Z,103810.78
2023-02-12T07:22:15.537Z,103812.50
2023-02-12T07:24:43.698Z,103810.78
2023-02-12T07:27:10.494Z,103820.44
2023-02-12T07:29:37.320Z,103825.72
2023-02-12T07:32:04.416Z,103825.59
2023-02-12T07:34:31.365Z,103828.16
2023-02-12T07:36:58.230Z,103822.88
2023-02-12T07:39:25.027Z,103826.38
2023-02-12T07:41:53.238Z,103828.09
2023-02-12T07:44:19.986Z,103836.03
2023-02-12T07:46:49.098Z,103829.88
2023-02-12T07:49:17.605Z,103829.78
2023-02-12T07:51:44.788Z,103833.28
2023-02-12T07:54:11.813Z,103835.81
2023-02-12T07:56:41.161Z,103834.03
2023-02-12T07:59:12.405Z,103834.81
2023-02-12T08:01:41.449Z,103835.66
2023-02-12T08:04:10.139Z,103835.56
2023-02-12T08:06:39.556Z,103846.06
2023-02-12T08:09:10.133Z,103850.31
2023-02-12T08:11:38.628Z,103849.38
2023-02-12T08:14:05.931Z,103850.13
2023-02-12T08:16:37.613Z,103851.00
2023-02-12T08:19:16.924Z,103853.56
2023-02-12T08:21:50.186Z,103856.94
2023-02-12T08:24:16.849Z,103859.41
2023-02-12T08:26:44.444Z,103861.13
2023-02-12T08:29:13.979Z,103860.19
2023-02-12T08:31:44.034Z,103861.88
2023-02-12T08:34:17.811Z,103874.09
2023-02-12T08:36:45.369Z,103875.78
2023-02-12T08:39:13.194Z,103870.41
2023-02-12T08:41:42.404Z,103868.50
2023-02-12T08:44:10.542Z,103870.13
2023-02-12T08:46:40.437Z,103872.69
2023-02-12T08:49:12.014Z,103884.03
2023-02-12T08:51:40.415Z,103886.56
2023-02-12T08:54:10.839Z,103885.53
2023-02-12T08:56:38.044Z,103893.41
2023-02-12T08:59:06.995Z,103893.31
2023-02-12T09:01:38.695Z,103889.59
2023-02-12T09:04:06.038Z,103890.38
2023-02-12T09:06:36.552Z,103900.88
2023-02-12T09:09:03.642Z,103894.53
2023-02-12T09:11:30.792Z,103897.09
2023-02-12T09:13:59.479Z,103905.81
2023-02-12T09:16:30.050Z,103896.00
2023-02-12T09:18:57.219Z,103897.59
2023-02-12T09:21:24.280Z,103896.66
2023-02-12T09:23:53.003Z,103902.72
2023-02-12T09:26:22.356Z,103916.75
2023-02-12T09:28:50.667Z,103906.03
2023-02-12T09:31:20.848Z,103901.47
2023-02-12T09:33:51.238Z,103900.53
2023-02-12T09:36:19.352Z,103900.44
2023-02-12T09:38:46.112Z,103903.84
2023-02-12T09:41:47.118Z,103901.94
2023-02-12T09:44:21.008Z,103904.44
2023-02-12T09:46:51.917Z,103900.84
2023-02-12T09:49:28.782Z,103902.41
2023-02-12T09:51:55.954Z,103896.16
2023-02-12T09:54:26.125Z,103899.69
2023-02-12T09:56:57.238Z,103904.81
2023-02-12T09:59:33.170Z,103908.28
2023-02-12T10:02:00.473Z,103903.75
2023-02-12T10:04:28.830Z,103905.34
2023-02-12T10:07:03.562Z,103899.97
2023-02-12T10:09:53.881Z,103908.66
2023-02-12T10:12:31.454Z,103905.06
2023-02-12T10:15:18.116Z,103903.16
2023-02-12T10:17:54.431Z,103902.13
2023-02-12T10:20:50.557Z,103900.22
2023-02-12T10:23:32.442Z,103908.16
2023-02-12T10:26:07.090Z,103906.28
2023-02-12T10:28:39.857Z,103902.59
2023-02-12T10:31:15.122Z,103896.22
2023-02-12T10:33:45.475Z,103896.97
2023-02-12T10:36:19.110Z,103895.94
2023-02-12T10:38:50.968Z,103897.63
2023-02-12T10:41:18.185Z,103903.69
2023-02-12T10:43:46.384Z,103901.81
2023-02-12T10:46:15.660Z,103895.47
2023-02-12T10:48:46.030Z,103899.78
2023-02-12T10:51:39.959Z,103898.75
2023-02-12T10:54:41.768Z,103902.16
2023-02-12T10:57:11.693Z,103902.16
2023-02-12T10:59:41.449Z,103899.50
2023-02-12T11:02:21.141Z,103903.00
2023-02-12T11:04:47.989Z,103899.41
2023-02-12T11:07:14.956Z,103900.16
2023-02-12T11:09:46.991Z,103902.72
2023-02-12T11:12:21.127Z,103899.97
2023-02-12T11:14:54.352Z,103897.09
2023-02-12T11:17:29.835Z,103897.84
2023-02-12T11:20:09.762Z,103894.16
2023-02-12T11:22:36.999Z,103900.19
2023-02-12T11:25:16.241Z,103894.06
2023-02-12T11:27:43.107Z,103896.59
2023-02-12T11:30:20.080Z,103895.66
2023-02-12T11:32:49.382Z,103893.84
2023-02-12T11:35:24.109Z,103888.44
2023-02-12T11:37:53.819Z,103885.69
2023-02-12T11:40:23.089Z,103880.25
2023-02-12T11:42:52.812Z,103880.06
2023-02-12T11:45:23.098Z,103885.19
2023-02-12T11:47:51.539Z,103873.72
2023-02-12T11:50:25.790Z,103870.84
2023-02-12T11:52:56.247Z,103865.34
2023-02-12T11:55:26.484Z,103864.28
2023-02-12T11:58:02.171Z,103865.97
2023-02-12T12:00:35.707Z,103863.13
2023-02-12T12:03:14.073Z,103855.91
2023-02-12T12:05:49.899Z,103847.81
2023-02-12T12:08:24.365Z,103843.19
2023-02-12T12:10:56.746Z,103839.47
2023-02-12T12:13:30.598Z,103845.50
2023-02-12T12:16:26.451Z,103840.84
2023-02-12T12:19:15.015Z,103836.41
2023-02-12T12:21:47.274Z,103834.38
2023-02-12T12:24:18.007Z,103822.78
2023-02-12T12:26:47.872Z,103828.88
2023-02-12T12:29:24.223Z,103827.69
2023-02-12T12:31:58.087Z,103827.50
2023-02-12T12:34:27.742Z,103824.72
2023-02-12T12:37:12.657Z,103824.59
2023-02-12T12:39:54.434Z,103822.69
2023-02-12T12:42:55.995Z,103824.16
2023-02-12T12:45:54.494Z,103820.56
2023-02-12T12:48:36.490Z,103822.16
2023-02-12T12:51:18.209Z,103811.44
2023-02-12T12:54:02.096Z,103810.50
2023-02-12T12:56:43.914Z,103818.34
2023-02-12T12:59:50.211Z,103804.94
2023-02-12T13:02:43.970Z,103805.59
2023-02-12T13:05:51.781Z,103805.47
2023-02-12T13:08:25.023Z,103806.22
2023-02-12T13:10:57.887Z,103804.41
2023-02-12T13:13:31.609Z,103807.06
2023-02-12T13:16:04.009Z,103800.03
2023-02-12T13:18:42.832Z,103800.91
2023-02-12T13:21:16.258Z,103795.38
2023-02-12T13:23:50.991Z,103793.59
2023-02-12T13:26:30.654Z,103793.44
2023-02-12T13:29:05.086Z,103796.84
2023-02-12T13:31:41.201Z,103790.47
2023-02-12T13:34:14.800Z,103792.28
2023-02-12T13:36:42.800Z,103794.72
2023-02-12T13:39:22.760Z,103793.75
2023-02-12T13:42:04.856Z,103789.41
2023-02-12T13:44:40.321Z,103792.06
2023-02-12T13:47:16.693Z,103789.28
2023-02-12T13:49:50.531Z,103780.47
2023-02-12T13:52:26.967Z,103777.81
2023-02-12T13:55:19.563Z,103783.13
2023-02-12T13:57:46.309Z,103780.38
2023-02-12T14:00:51.568Z,103776.84
2023-02-12T14:03:23.836Z,103776.25
2023-02-12T14:06:08.301Z,103771.78
2023-02-12T14:08:37.746Z,103771.78
2023-02-12T14:11:12.441Z,103776.34
2023-02-12T14:13:51.104Z,103777.28
2023-02-12T14:16:40.088Z,103776.34
2023-02-12T14:19:54.080Z,103778.16
2023-02-12T14:22:59.168Z,103764.75
2023-02-12T14:25:44.198Z,103766.56
2023-02-12T14:28:24.417Z,103764.66
2023-02-12T14:31:34.446Z,103767.31
2023-02-12T14:34:44.578Z,103760.28
2023-02-12T14:37:18.242Z,103764.75
2023-02-12T14:39:45.648Z,103765.81
2023-02-12T14:42:43.014Z,103765.72
2023-02-12T14:45:30.491Z,103763.91
2023-02-12T14:47:57.542Z,103765.72
2023-02-12T14:50:30.259Z,103761.34
2023-02-12T14:53:24.027Z,103757.75
2023-02-12T14:55:51.911Z,103761.16
2023-02-12T14:58:21.609Z,103767.31
2023-02-12T15:00:54.041Z,103764.66
2023-02-12T15:03:27.584Z,103761.00
2023-02-12T15:06:10.094Z,103762.81
2023-02-12T15:08:44.226Z,103757.50
2023-02-12T15:11:21.634Z,103758.50
2023-02-12T15:13:57.011Z,103763.81
2023-02-12T15:16:33.480Z,103757.63
2023-02-12T15:19:06.932Z,103757.63
2023-02-12T15:21:35.704Z,103757.63
2023-02-12T15:24:05.458Z,103750.63
2023-02-12T15:26:35.112Z,103750.53
2023-02-12T15:29:03.085Z,103744.44
2023-02-12T15:31:33.451Z,103748.91
2023-02-12T15:34:02.878Z,103747.31
2023-02-12T15:36:33.796Z,103748.16
2023-02-12T15:39:04.232Z,103742.00
2023-02-12T15:41:39.660Z,103748.28
2023-02-12T15:44:29.517Z,103748.28
2023-02-12T15:47:03.666Z,103742.94
2023-02-12T15:49:35.345Z,103751.91
2023-02-12T15:52:06.683Z,103737.78
2023-02-12T15:54:33.807Z,103748.41
2023-02-12T15:57:01.829Z,103736.91
2023-02-12T15:59:29.398Z,103736.91
2023-02-12T16:02:03.546Z,103738.72
2023-02-12T16:04:33.452Z,103737.97
2023-02-12T16:07:01.686Z,103737.97
2023-02-12T16:09:33.868Z,103732.75
2023-02-12T16:12:03.682Z,103732.75
2023-02-12T16:14:40.926Z,103734.72
2023-02-12T16:17:21.472Z,103731.19
2023-02-12T16:19:54.561Z,103726.84
2023-02-12T16:22:26.366Z,103723.44
2023-02-12T16:24:56.572Z,103724.50
2023-02-12T16:27:25.941Z,103730.78
2023-02-12T16:29:55.697Z,103723.78
2023-02-12T16:32:30.586Z,103723.88
2023-02-12T16:35:03.604Z,103726.63
2023-02-12T16:37:46.890Z,103723.97
2023-02-12T16:40:28.015Z,103724.22
2023-02-12T16:43:25.657Z,103730.38
2023-02-12T16:46:03.906Z,103733.13
2023-02-12T16:48:38.127Z,103732.28
2023-02-12T16:51:06.328Z,103734.19
2023-02-12T16:53:43.771Z,103735.13
2023-02-12T16:56:15.897Z,103732.47
2023-02-12T16:58:43.003Z,103744.06
2023-02-12T17:01:10.073Z,103736.22
2023-02-12T17:03:39.548Z,103745.16
2023-02-12T17:06:07.214Z,103747.06
2023-02-12T17:08:34.129Z,103745.34
2023-02-12T17:11:00.900Z,103751.59
2023-02-12T17:13:27.919Z,103749.91
2023-02-12T17:15:57.318Z,103748.34
2023-02-12T17:18:25.082Z,103754.59
2023-02-12T17:20:56.355Z,103755.56
2023-02-12T17:23:24.555Z,103755.66
2023-02-12T17:25:51.909Z,103753.94
2023-02-12T17:28:18.809Z,103756.59
2023-02-12T17:30:45.791Z,103749.72
2023-02-12T17:33:12.940Z,103753.22
2023-02-12T17:35:42.320Z,103758.63
2023-02-12T17:38:10.548Z,103763.94
2023-02-12T17:40:38.170Z,103758.72
2023-02-12T17:43:05.588Z,103767.56
2023-02-12T17:45:32.764Z,103771.16
2023-02-12T17:48:01.972Z,103765.94
2023-02-12T17:50:29.028Z,103770.44
2023-02-12T17:52:55.958Z,103770.53
2023-02-12T17:55:24.113Z,103770.53
2023-02-12T17:57:54.533Z,103772.34
2023-02-12T18:00:22.477Z,103771.50
2023-02-12T18:02:49.680Z,103776.78
2023-02-12T18:05:16.802Z,103774.25
2023-02-12T18:07:43.759Z,103784.88
2023-02-12T18:10:11.735Z,103780.59
2023-02-12T18:12:40.071Z,103784.25
2023-02-12T18:15:09.004Z,103774.66
2023-02-12T18:17:36.573Z,103772.00
2023-02-12T18:20:04.333Z,103772.09
2023-02-12T18:22:33.919Z,103772.09
2023-02-12T18:25:00.667Z,103772.97
2023-02-12T18:27:27.547Z,103778.38
2023-02-12T18:29:57.214Z,103781.88
2023-02-12T18:32:24.534Z,103778.38
2023-02-12T18:34:51.463Z,103772.22
2023-02-12T18:37:18.344Z,103768.81
2023-02-12T18:39:45.235Z,103776.03
2023-02-12T18:42:15.122Z,103780.41
2023-02-12T18:44:42.834Z,103777.75
2023-02-12T18:47:11.238Z,103768.94
2023-02-12T18:49:38.022Z,103776.88
2023-02-12T18:52:05.268Z,103774.22
2023-02-12T18:54:32.754Z,103783.16
2023-02-12T18:56:59.687Z,103781.44
2023-02-12T18:59:27.397Z,103777.84
2023-02-12T19:01:54.528Z,103781.34
2023-02-12T19:04:24.134Z,103777.84
2023-02-12T19:06:53.353Z,103773.47
2023-02-12T19:09:24.241Z,103771.69
2023-02-12T19:11:52.929Z,103769.03
2023-02-12T19:14:22.146Z,103770.81
2023-02-12T19:16:49.214Z,103770.81
2023-02-12T19:19:16.811Z,103767.31
2023-02-12T19:21:45.096Z,103762.88
2023-02-12T19:24:13.854Z,103772.63
2023-02-12T19:26:41.299Z,103771.91
2023-02-12T19:29:08.310Z,103764.03
2023-02-12T19:31:37.128Z,103766.78
2023-02-12T19:34:09.603Z,103764.13
2023-02-12T19:36:37.400Z,103769.44
2023-02-12T19:39:06.145Z,103761.38
2023-02-12T19:41:40.833Z,103763.28
2023-02-12T19:44:11.908Z,103752.66
2023-02-12T19:46:40.600Z,103757.97
2023-02-12T19:49:10.579Z,103757.13
2023-02-12T19:51:39.531Z,103747.34
2023-02-12T19:54:10.221Z,103744.69
2023-02-12T19:56:37.865Z,103750.00
2023-02-12T19:59:05.297Z,103749.06
2023-02-12T20:01:32.770Z,103750.78
2023-02-12T20:04:00.737Z,103745.56
2023-02-12T20:06:31.769Z,103752.56
2023-02-12T20:08:58.997Z,103749.91
2023-02-12T20:11:32.956Z,103755.22
2023-02-12T20:14:01.692Z,103750.78
2023-02-12T20:16:37.560Z,103751.72
2023-02-12T20:19:07.157Z,103757.03
2023-02-12T20:21:34.221Z,103756.19
2023-02-12T20:24:02.195Z,103754.38
2023-02-12T20:26:32.405Z,103751.72
2023-02-12T20:28:59.675Z,103749.81
2023-02-12T20:31:28.541Z,103749.06
2023-02-12T20:33:56.508Z,103748.53
2023-02-12T20:36:24.320Z,103749.25
2023-02-12T20:39:05.089Z,103739.81
2023-02-12T20:41:37.612Z,103749.69
2023-02-12T20:44:26.439Z,103736.84
2023-02-12T20:46:57.010Z,103741.28
2023-02-12T20:49:24.435Z,103735.97
2023-02-12T20:51:52.062Z,103737.59
2023-02-12T20:54:18.943Z,103739.28
2023-02-12T20:56:50.484Z,103730.34
2023-02-12T20:59:19.036Z,103733.97
2023-02-12T21:01:47.026Z,103735.03
2023-02-12T21:04:16.882Z,103733.22
2023-02-12T21:06:44.957Z,103745.44
2023-02-12T21:09:13.939Z,103742.78
2023-02-12T21:11:43.179Z,103742.78
2023-02-12T21:14:21.977Z,103740.97
2023-02-12T21:16:50.394Z,103742.66
2023-02-12T21:19:18.092Z,103740.97
2023-02-12T21:21:46.579Z,103736.50
2023-02-12T21:24:17.681Z,103736.63
2023-02-12T21:26:44.687Z,103731.31
2023-02-12T21:29:12.890Z,103733.00
2023-02-12T21:31:41.577Z,103738.31
2023-02-12T21:34:13.237Z,103735.66
2023-02-12T21:36:45.390Z,103733.97
2023-02-12T21:39:14.740Z,103731.44
2023-02-12T21:41:42.906Z,103735.78
2023-02-12T21:44:14.521Z,103737.59
2023-02-12T21:46:42.214Z,103732.28
2023-02-12T21:49:10.488Z,103737.69
2023-02-12T21:51:39.820Z,103733.41
2023-02-12T21:54:12.226Z,103731.84
2023-02-12T21:56:46.220Z,103730.03
2023-02-12T21:59:15.311Z,103732.78
2023-02-12T22:01:44.113Z,103731.00
2023-02-12T22:04:11.404Z,103736.31
2023-02-12T22:06:40.527Z,103735.44
2023-02-12T22:09:09.960Z,103727.50
2023-02-12T22:11:38.449Z,103733.66
2023-02-12T22:14:08.245Z,103729.28
2023-02-12T22:16:37.376Z,103729.28
2023-02-12T22:19:05.401Z,103723.13
2023-02-12T22:21:34.753Z,103725.88
2023-02-12T22:24:02.832Z,103728.53
2023-02-12T22:26:31.686Z,103725.88
2023-02-12T22:29:00.146Z,103726.81
2023-02-12T22:31:29.461Z,103732.25
2023-02-12T22:34:01.388Z,103724.31
2023-02-12T22:36:29.462Z,103721.75
2023-02-12T22:38:59.063Z,103724.50
2023-02-12T22:41:26.784Z,103720.13
2023-02-12T22:43:54.494Z,103731.59
2023-02-12T22:46:23.601Z,103721.94
2023-02-12T22:48:50.521Z,103731.69
2023-02-12T22:51:22.201Z,103730.13
2023-02-12T22:53:49.295Z,103733.72
2023-02-12T22:56:17.282Z,103725.75
2023-02-12T22:59:21.745Z,103729.47
2023-02-12T23:01:49.898Z,103722.53
2023-02-12T23:04:18.207Z,103724.47
2023-02-12T23:06:47.042Z,103723.63
2023-02-12T23:09:16.906Z,103722.00
2023-02-12T23:11:43.888Z,103719.38
2023-02-12T23:14:10.744Z,103715.00
2023-02-12T23:16:37.646Z,103722.00
2023-02-12T23:19:10.425Z,103723.91
2023-02-12T23:21:37.236Z,103716.19
2023-02-12T23:24:25.733Z,103713.63
2023-02-12T23:26:53.115Z,103708.41
2023-02-12T23:29:20.290Z,103706.69
2023-02-12T23:31:48.257Z,103710.34
2023-02-12T23:34:15.305Z,103706.84
2023-02-12T23:36:42.415Z,103705.03
2023-02-12T23:39:12.160Z,103699.06
2023-02-12T23:41:40.496Z,103703.53
2023-02-12T23:44:07.383Z,103700.09
2023-02-12T23:46:34.215Z,103695.88
2023-02-12T23:49:02.267Z,103690.75
2023-02-12T23:51:29.229Z,103693.50
2023-02-12T23:53:56.280Z,103685.69
2023-02-12T23:56:23.519Z,103685.69
2023-02-12T23:58:51.946Z,103686.53
